Time;durP1;ratioP1;P1;durP2;ratioP2;P2;SDS_P1;SDS_P2;PMS_P1;PMS_P2;Temp;Humidity;BMP_temperature;BMP_pressure;BME280_temperature;BME280_humidity;BME280_pressure;Samples;Min_cycle;Max_cycle;Signal;HPM_P1;HPM_P2
2021/06/28 00:01:34;;;;;;;1999.90;999.90;;;;;;;20.39;62.18;101148.81;15368039;29;20073;-66
2021/06/28 00:09:07;;;;;;;1999.90;999.90;;;;;;;20.38;62.38;101158.53;15369833;28;20086;-67
2021/06/28 00:16:40;;;;;;;1999.90;999.90;;;;;;;20.26;62.13;101143.84;15369471;28;20146;-66
2021/06/28 00:24:13;;;;;;;1999.90;999.90;;;;;;;20.25;62.54;101151.53;15384571;28;20058;-66
2021/06/28 00:31:46;;;;;;;1999.90;999.90;;;;;;;20.12;62.76;101147.34;15368736;28;20043;-67
2021/06/28 00:39:19;;;;;;;1999.90;999.90;;;;;;;20.02;63.00;101143.19;15368905;28;20051;-65
2021/06/28 00:46:52;;;;;;;1999.90;999.90;;;;;;;19.99;63.26;101146.78;15367587;28;20051;-66
2021/06/28 00:54:25;;;;;;;1999.90;999.90;;;;;;;19.91;63.75;101142.25;15375141;28;20146;-65
2021/06/28 01:01:59;;;;;;;1999.90;999.90;;;;;;;19.86;63.78;101162.41;15380554;28;20044;-66
2021/06/28 01:09:33;;;;;;;1999.90;999.90;;;;;;;19.79;64.00;101153.81;15379346;28;20139;-64
2021/06/28 01:17:05;;;;;;;1999.90;999.90;;;;;;;19.66;64.29;101149.59;15378191;28;20445;-66
2021/06/28 01:24:38;;;;;;;1999.90;999.90;;;;;;;19.59;64.72;101144.66;15378907;29;20051;-66
2021/06/28 01:32:11;;;;;;;1999.90;999.90;;;;;;;19.36;65.06;101143.91;15377356;28;20167;-66
2021/06/28 01:39:44;;;;;;;1999.90;999.90;;;;;;;19.36;65.34;101144.72;15376811;28;20127;-65
2021/06/28 01:47:17;;;;;;;1999.90;999.90;;;;;;;19.18;65.96;101144.47;15375003;28;20425;-66
2021/06/28 01:54:50;;;;;;;1999.90;999.90;;;;;;;19.17;65.67;101147.66;15375560;28;20054;-65
2021/06/28 02:02:22;;;;;;;1999.90;999.90;;;;;;;19.07;66.17;101154.81;15374281;28;20075;-66
2021/06/28 02:09:56;;;;;;;1999.90;999.90;;;;;;;19.01;66.66;101145.84;15374770;28;20492;-65
2021/06/28 02:17:28;;;;;;;1999.90;999.90;;;;;;;18.99;66.56;101151.06;15374797;28;20059;-64
2021/06/28 02:25:02;;;;;;;1999.90;999.90;;;;;;;18.84;67.39;101137.88;15373339;29;20058;-65
2021/06/28 02:32:34;;;;;;;1999.90;999.90;;;;;;;18.85;67.43;101138.69;15372752;29;20051;-65
2021/06/28 02:40:10;;;;;;;1999.90;999.90;;;;;;;18.90;67.65;101121.41;15373390;29;20384;-66
2021/06/28 02:47:43;;;;;;;1999.90;999.90;;;;;;;19.00;67.25;101124.41;15387762;28;20082;-65
2021/06/28 02:55:16;;;;;;;1999.90;999.90;;;;;;;18.77;67.89;101106.69;15373052;28;20050;-65
2021/06/28 03:02:48;;;;;;;1999.90;999.90;;;;;;;18.94;67.68;101119.44;15387282;28;20355;-66
2021/06/28 03:10:22;;;;;;;1999.90;999.90;;;;;;;19.07;66.85;101114.38;15371675;28;20039;-66
2021/06/28 03:17:55;;;;;;;1999.90;999.90;;;;;;;19.01;66.98;101126.03;15370260;28;20055;-65
2021/06/28 03:25:29;;;;;;;1999.90;999.90;;;;;;;18.98;67.14;101126.00;15371277;28;20047;-66
2021/06/28 03:33:01;;;;;;;1999.90;999.90;;;;;;;19.00;67.43;101127.22;15370545;28;20075;-67
2021/06/28 03:40:35;;;;;;;1999.90;999.90;;;;;;;19.31;67.02;101134.56;15370645;28;20275;-66
2021/06/28 03:48:11;;;;;;;1999.90;999.90;;;;;;;19.23;67.48;101140.50;15370635;28;20051;-66
2021/06/28 03:55:44;;;;;;;1999.90;999.90;;;;;;;19.47;67.01;101144.88;15369819;28;20055;-66
2021/06/28 04:03:16;;;;;;;1999.90;999.90;;;;;;;19.68;66.96;101148.00;15369795;28;20069;-65
2021/06/28 04:10:52;;;;;;;1999.90;999.90;;;;;;;19.87;64.33;101153.50;15384549;28;20047;-65
2021/06/28 04:18:24;;;;;;;1999.90;999.90;;;;;;;20.36;64.48;101160.94;15370091;28;20481;-67
2021/06/28 04:25:58;;;;;;;1999.90;999.90;;;;;;;20.80;64.31;101162.19;15370388;28;20135;-66
2021/06/28 04:33:30;;;;;;;1999.90;999.90;;;;;;;20.95;60.91;101166.78;15391242;23;20563;-63
2021/06/28 04:41:03;;;;;;;1999.90;999.90;;;;;;;21.51;59.90;101179.75;15384034;29;20043;-64
2021/06/28 04:48:35;;;;;;;1999.90;999.90;;;;;;;21.91;58.08;101178.75;15368747;28;20130;-64
2021/06/28 04:56:09;;;;;;;1999.90;999.90;;;;;;;22.16;56.55;101162.63;15383736;28;20130;-63
2021/06/28 05:03:41;;;;;;;1999.90;999.90;;;;;;;22.89;55.20;101170.06;15398091;28;20440;-63
2021/06/28 05:11:14;;;;;;;1999.90;999.90;;;;;;;22.56;54.25;101163.50;15401813;28;20404;-63
2021/06/28 05:18:46;;;;;;;1999.90;999.90;;;;;;;23.18;53.36;101171.66;15399081;28;20050;-64
2021/06/28 05:26:20;;;;;;;1999.90;999.90;;;;;;;23.63;52.45;101160.59;15380106;29;20150;-64
2021/06/28 05:33:52;;;;;;;1999.90;999.90;;;;;;;24.46;49.98;101153.28;15395795;28;20122;-64
2021/06/28 05:41:26;;;;;;;1999.90;999.90;;;;;;;25.24;49.52;101151.84;15394123;28;20062;-63
2021/06/28 05:48:58;;;;;;;1999.90;999.90;;;;;;;25.87;47.84;101153.19;15380353;28;20120;-64
2021/06/28 05:56:31;;;;;;;1999.90;999.90;;;;;;;26.31;47.28;101150.53;15379370;28;20051;-64
2021/06/28 06:04:04;;;;;;;1999.90;999.90;;;;;;;27.13;45.31;101160.72;15379697;28;20074;-64
2021/06/28 06:11:37;;;;;;;;;;;;;;;27.94;44.43;101157.53;15378807;28;20382;-65
2021/06/28 06:19:09;;;;;;;1999.90;999.90;;;;;;;27.36;43.82;101160.69;15378081;29;19922;-63
2021/06/28 06:26:43;;;;;;;1999.90;999.90;;;;;;;28.52;43.13;101170.16;15378843;28;20134;-64
2021/06/28 06:34:15;;;;;;;1999.90;999.90;;;;;;;28.32;42.93;101178.81;15392834;28;20420;-64
2021/06/28 06:41:48;;;;;;;;;;;;;;;29.23;41.31;101181.94;15377818;28;20048;-66
2021/06/28 06:49:21;;;;;;;1999.90;999.90;;;;;;;29.63;41.98;101191.16;15361363;28;20410;-65
2021/06/28 06:56:54;;;;;;;1999.90;999.90;;;;;;;28.71;41.77;101188.56;15392612;28;20058;-63
2021/06/28 07:04:27;;;;;;;1999.90;999.90;;;;;;;28.51;41.93;101182.09;15374493;28;20044;-64
2021/06/28 07:12:00;;;;;;;1999.90;999.90;;;;;;;29.12;39.53;101185.09;15390475;28;20046;-64
2021/06/28 07:19:33;;;;;;;1999.90;999.90;;;;;;;29.56;39.07;101202.84;15376098;28;20508;-63
2021/06/28 07:27:07;;;;;;;1999.90;999.90;;;;;;;29.59;38.34;101201.94;15391330;28;20416;-64
2021/06/28 07:34:39;;;;;;;1999.90;999.90;;;;;;;30.20;36.76;101191.56;15373865;29;20081;-64
2021/06/28 07:42:13;;;;;;;1999.90;999.90;;;;;;;30.77;35.96;101189.81;15373344;29;20058;-64
2021/06/28 07:49:45;;;;;;;1999.90;999.90;;;;;;;30.66;34.67;101193.03;15373258;29;20043;-64
2021/06/28 07:57:19;;;;;;;1999.90;999.90;;;;;;;31.50;34.16;101185.63;15374454;28;20058;-63
2021/06/28 08:04:52;;;;;;;1999.90;999.90;;;;;;;31.96;32.63;101186.00;15396293;28;20039;-63
2021/06/28 08:12:26;;;;;;;1999.90;999.90;;;;;;;32.04;30.85;101190.22;15367166;28;20044;-61
2021/06/28 08:19:58;;;;;;;1999.90;999.90;;;;;;;32.05;29.24;101196.81;15370756;29;20133;-63
2021/06/28 08:27:31;;;;;;;1999.90;999.90;;;;;;;32.37;30.15;101190.63;15371733;28;20437;-63
2021/06/28 08:35:04;;;;;;;1999.90;999.90;;;;;;;32.97;29.65;101178.69;15322436;29;20519;-63
2021/06/28 08:42:38;;;;;;;1999.90;999.90;;;;;;;33.72;28.47;101180.38;15323566;29;20408;-64
2021/06/28 08:50:12;;;;;;;1999.90;999.90;;;;;;;33.72;29.08;101191.97;15323771;29;20078;-64
2021/06/28 08:57:45;;;;;;;1999.90;999.90;;;;;;;33.89;31.49;101173.00;15328941;29;20047;-63
2021/06/28 09:05:18;;;;;;;1999.90;999.90;;;;;;;34.99;26.80;101192.94;15324782;29;20046;-64
2021/06/28 09:12:51;;;;;;;1999.90;999.90;;;;;;;34.66;26.92;101182.13;15382717;28;20342;-63
2021/06/28 09:20:23;;;;;;;1999.90;999.90;;;;;;;35.27;26.19;101184.84;15326433;29;20428;-63
2021/06/28 09:27:57;;;;;;;1999.90;999.90;;;;;;;34.71;25.16;101180.66;15347378;29;20058;-64
2021/06/28 09:35:34;;;;;;;1999.90;999.90;;;;;;;34.37;26.05;101184.78;15374098;28;20111;-62
2021/06/28 09:43:29;;;;;;;1999.90;999.90;;;;;;;35.42;25.33;101173.31;15345997;28;20454;-63
2021/06/28 09:51:20;;;;;;;1999.90;999.90;;;;;;;35.92;23.80;101168.53;15330213;29;20421;-63
2021/06/28 09:58:54;;;;;;;1999.90;999.90;;;;;;;36.29;24.17;101171.88;15326397;28;20390;-63
2021/06/28 10:06:31;;;;;;;1999.90;999.90;;;;;;;36.41;24.67;101162.06;15318978;29;20453;-62
2021/06/28 10:14:07;;;;;;;1999.90;999.90;;;;;;;35.73;23.04;101147.56;15318703;29;20131;-61
2021/06/28 10:21:39;;;;;;;1999.90;999.90;;;;;;;36.03;24.07;101150.53;15317618;29;20107;-61
2021/06/28 10:29:14;;;;;;;1999.90;999.90;;;;;;;34.88;24.65;101140.50;15334031;28;20043;-61
2021/06/28 10:36:48;;;;;;;1999.90;999.90;;;;;;;34.43;24.14;101128.63;15383308;23;20058;-64
2021/06/28 10:44:24;;;;;;;1999.90;999.90;;;;;;;34.41;24.59;101128.31;15371395;29;20047;-65
2021/06/28 10:51:56;;;;;;;1999.90;999.90;;;;;;;33.70;27.17;101117.22;15371013;28;20147;-64
2021/06/28 11:08:22;;;;;;;1999.90;999.90;;;;;;;32.24;27.70;101103.25;15355009;28;20055;-66
2021/06/28 11:15:54;;;;;;;1999.90;999.90;;;;;;;33.64;25.99;101103.88;15367840;29;20075;-65
2021/06/28 11:23:31;;;;;;;1999.90;999.90;;;;;;;33.68;26.92;101104.53;15368610;28;20051;-65
2021/06/28 11:31:06;;;;;;;1999.90;999.90;;;;;;;33.41;24.19;101090.88;15367768;29;20078;-65
2021/06/28 11:38:43;;;;;;;1999.90;999.90;;;;;;;34.01;24.90;101098.84;15383773;28;20051;-65
2021/06/28 11:46:18;;;;;;;1999.90;999.90;;;;;;;35.19;24.66;101085.00;15368355;28;20047;-65
2021/06/28 11:53:57;;;;;;;1999.90;999.90;;;;;;;35.04;24.25;101076.28;15367476;29;20065;-65
2021/06/28 12:01:34;;;;;;;1999.90;999.90;;;;;;;35.26;23.68;101078.84;15366829;28;20496;-65
2021/06/28 12:09:12;;;;;;;1999.90;999.90;;;;;;;38.64;21.72;101072.00;15368573;28;20067;-64
2021/06/28 12:16:44;;;;;;;1999.90;999.90;;;;;;;40.40;19.90;101068.47;15368370;28;20499;-65
2021/06/28 12:24:20;;;;;;;1999.90;999.90;;;;;;;36.23;22.80;101062.69;15368515;28;20051;-65
2021/06/28 12:31:58;;;;;;;1999.90;999.90;;;;;;;35.93;23.26;101048.19;15342378;28;20087;-66
2021/06/28 12:39:32;;;;;;;1999.90;999.90;;;;;;;39.18;19.91;101057.44;15308766;29;20135;-65
2021/06/28 12:47:05;;;;;;;1999.90;999.90;;;;;;;39.85;18.53;101050.97;15309347;29;20044;-64
2021/06/28 12:54:38;;;;;;;1999.90;999.90;;;;;;;35.47;22.78;101045.00;15302341;29;20162;-65
2021/06/28 13:02:12;;;;;;;1999.90;999.90;;;;;;;34.97;23.88;101033.16;15318614;29;20067;-64
2021/06/28 13:09:58;;;;;;;1999.90;999.90;;;;;;;34.08;24.70;101034.81;15301385;29;20404;-64
2021/06/28 13:17:30;;;;;;;1999.90;999.90;;;;;;;35.29;23.69;101032.22;15316538;29;20039;-67
2021/06/28 13:25:04;;;;;;;1999.90;999.90;;;;;;;35.24;23.76;101035.84;15318006;29;20115;-63
2021/06/28 13:32:36;;;;;;;1999.90;999.90;;;;;;;35.42;24.56;101011.66;15361339;29;20369;-65
2021/06/28 13:40:19;;;;;;;1999.90;999.90;;;;;;;35.99;22.06;101002.66;15374310;28;20134;-64
2021/06/28 13:47:57;;;;;;;1999.90;999.90;;;;;;;35.92;22.75;100997.25;15358447;28;20082;-66
2021/06/28 13:55:34;;;;;;;1999.90;999.90;;;;;;;35.17;22.73;100997.72;15358272;28;20098;-65
2021/06/28 14:03:07;;;;;;;1999.90;999.90;;;;;;;34.10;24.03;100992.50;15373291;28;20564;-65
2021/06/28 14:10:42;;;;;;;1999.90;999.90;;;;;;;34.42;23.78;100985.09;15357480;29;20051;-67
2021/06/28 14:18:17;;;;;;;1999.90;999.90;;;;;;;34.92;26.81;100984.59;15371831;28;20066;-64
2021/06/28 14:25:50;;;;;;;1999.90;999.90;;;;;;;33.54;24.50;100978.69;15373632;28;20082;-67
2021/06/28 14:33:22;;;;;;;1999.90;999.90;;;;;;;33.96;24.58;100972.94;15318303;29;20071;-64
2021/06/28 14:40:56;;;;;;;1999.90;999.90;;;;;;;33.26;26.07;100966.38;15312234;29;20059;-64
2021/06/28 14:48:28;;;;;;;1999.90;999.90;;;;;;;33.38;25.21;100953.03;15294339;29;20138;-65
2021/06/28 14:56:01;;;;;;;1999.90;999.90;;;;;;;33.53;25.20;100945.28;15354508;28;20286;-65
2021/06/28 15:03:52;;;;;;;1999.90;999.90;;;;;;;32.96;25.45;100942.19;15312312;29;20062;-65
2021/06/28 15:11:26;;;;;;;1999.90;999.90;;;;;;;33.04;25.40;100934.78;15338445;28;20078;-67
2021/06/28 15:18:59;;;;;;;1999.90;999.90;;;;;;;33.52;24.61;100938.69;15370474;28;20489;-68
2021/06/28 15:26:32;;;;;;;1999.90;999.90;;;;;;;33.51;25.04;100922.63;15370995;28;20098;-66
2021/06/28 15:34:05;;;;;;;1999.90;999.90;;;;;;;33.78;27.05;100913.03;15368632;28;20048;-65
2021/06/28 15:41:41;;;;;;;1999.90;999.90;;;;;;;33.50;25.73;100918.13;15369183;28;20074;-66
2021/06/28 15:49:14;;;;;;;1999.90;999.90;;;;;;;33.49;25.31;100912.84;15370582;28;20050;-64
2021/06/28 15:56:50;;;;;;;1999.90;999.90;;;;;;;33.51;25.68;100899.47;15369540;28;20070;-67
2021/06/28 16:04:22;;;;;;;1999.90;999.90;;;;;;;33.35;24.99;100894.09;15369881;28;20051;-63
2021/06/28 16:11:56;;;;;;;1999.90;999.90;;;;;;;33.02;25.44;100877.44;15368826;28;20039;-66
2021/06/28 16:19:28;;;;;;;1999.90;999.90;;;;;;;33.05;26.01;100881.47;15368724;29;20078;-67
2021/06/28 16:27:02;;;;;;;1999.90;999.90;;;;;;;33.42;25.64;100873.50;15378371;28;20497;-66
2021/06/28 16:34:34;;;;;;;1999.90;999.90;;;;;;;33.22;25.30;100864.53;15391637;23;20407;-61
2021/06/28 16:42:09;;;;;;;1999.90;999.90;;;;;;;32.67;26.31;100856.78;15384915;28;20047;-63
2021/06/28 16:49:41;;;;;;;1999.90;999.90;;;;;;;32.38;26.17;100848.59;15382612;28;20134;-62
2021/06/28 16:57:16;;;;;;;1999.90;999.90;;;;;;;32.16;26.73;100842.97;15383063;28;20078;-63
2021/06/28 17:04:48;;;;;;;1999.90;999.90;;;;;;;32.05;26.75;100841.84;15384208;28;20074;-63
2021/06/28 17:12:22;;;;;;;1999.90;999.90;;;;;;;31.97;27.68;100829.78;15382048;29;20074;-63
2021/06/28 17:19:54;;;;;;;1999.90;999.90;;;;;;;31.67;27.83;100825.69;15382095;28;20536;-63
2021/06/28 17:27:27;;;;;;;1999.90;999.90;;;;;;;31.79;27.64;100826.91;15364366;29;20133;-62
2021/06/28 17:35:00;;;;;;;1999.90;999.90;;;;;;;31.50;28.45;100825.19;15380050;28;20106;-63
2021/06/28 17:42:33;;;;;;;1999.90;999.90;;;;;;;31.31;29.67;100826.38;15380946;28;20078;-61
2021/06/28 17:50:07;;;;;;;1999.90;999.90;;;;;;;31.25;29.64;100831.16;15378981;29;20052;-61
2021/06/28 17:57:41;;;;;;;1999.90;999.90;;;;;;;31.09;30.77;100835.06;15363089;29;20049;-61
2021/06/28 18:05:13;;;;;;;1999.90;999.90;;;;;;;31.18;32.51;100825.66;15378975;29;20078;-62
2021/06/28 18:12:47;;;;;;;1999.90;999.90;;;;;;;31.00;30.44;100829.25;15379125;28;20047;-60
2021/06/28 18:20:22;;;;;;;1999.90;999.90;;;;;;;31.07;31.42;100820.34;15377656;29;20058;-61
2021/06/28 18:27:55;;;;;;;1999.90;999.90;;;;;;;30.89;31.74;100808.72;15378359;28;20052;-61
2021/06/28 18:35:28;;;;;;;1999.90;999.90;;;;;;;30.61;31.65;100811.38;15361736;29;20047;-63
2021/06/28 18:43:01;;;;;;;1999.90;999.90;;;;;;;30.58;34.42;100800.81;15376296;29;20043;-62
2021/06/28 18:50:33;;;;;;;1999.90;999.90;;;;;;;30.49;34.11;100794.97;15376057;28;20094;-61
2021/06/28 18:58:07;;;;;;;1999.90;999.90;;;;;;;30.11;35.88;100795.16;15376423;28;20134;-63
2021/06/28 19:05:40;;;;;;;1999.90;999.90;;;;;;;29.66;35.18;100793.44;15374865;29;20480;-64
2021/06/28 19:13:14;;;;;;;1999.90;999.90;;;;;;;29.40;33.91;100795.53;15374398;29;20055;-63
2021/06/28 19:20:46;;;;;;;1999.90;999.90;;;;;;;29.58;33.22;100804.38;15374605;28;20461;-63
2021/06/28 19:28:20;;;;;;;1999.90;999.90;;;;;;;29.40;33.90;100801.28;15375508;28;20062;-63
2021/06/28 19:35:52;;;;;;;1999.90;999.90;;;;;;;29.20;33.97;100797.84;15375185;28;20500;-62
2021/06/28 19:43:26;;;;;;;1999.90;999.90;;;;;;;29.19;37.60;100825.75;15375322;29;20098;-62
2021/06/28 19:50:58;;;;;;;1999.90;999.90;;;;;;;28.84;37.91;100847.72;15374804;28;20090;-61
2021/06/28 19:58:31;;;;;;;1999.90;999.90;;;;;;;28.57;38.11;100845.28;15374203;28;20077;-61
2021/06/28 20:06:04;;;;;;;1999.90;999.90;;;;;;;28.17;39.48;100845.53;15374422;28;20059;-63
2021/06/28 20:13:37;;;;;;;1999.90;999.90;;;;;;;27.82;41.52;100858.72;15374581;28;20071;-62
2021/06/28 20:21:10;;;;;;;1999.90;999.90;;;;;;;27.55;42.54;100853.25;15373750;28;20057;-60
2021/06/28 20:28:44;;;;;;;1999.90;999.90;;;;;;;27.38;42.48;100845.06;15371901;29;20047;-59
2021/06/28 20:36:16;;;;;;;1999.90;999.90;;;;;;;27.21;42.36;100853.66;15372153;29;20420;-60
2021/06/28 20:43:50;;;;;;;1999.90;999.90;;;;;;;27.14;42.76;100853.81;15373650;28;20049;-63
2021/06/28 20:51:22;;;;;;;1999.90;999.90;;;;;;;27.09;42.86;100862.13;15371233;28;20043;-62
2021/06/28 20:58:57;;;;;;;1999.90;999.90;;;;;;;27.14;42.28;100845.22;15373749;28;20055;-62
2021/06/28 21:06:29;;;;;;;1999.90;999.90;;;;;;;27.10;43.42;100846.56;15372735;28;20082;-62
2021/06/28 21:14:03;;;;;;;1999.90;999.90;;;;;;;27.00;42.73;100845.53;15380436;28;20604;-62
2021/06/28 21:21:35;;;;;;;1999.90;999.90;;;;;;;26.76;43.33;100834.16;15380505;29;20445;-63
2021/06/28 21:29:09;;;;;;;;;;;;;;;26.60;40.72;100836.19;15381342;28;20505;-61
2021/06/28 21:36:41;;;;;;;1999.90;999.90;;;;;;;26.59;42.34;100835.38;15380700;28;19982;-62
2021/06/28 21:44:15;;;;;;;1999.90;999.90;;;;;;;26.56;43.20;100826.84;15379812;29;20520;-62
2021/06/28 21:51:47;;;;;;;1999.90;999.90;;;;;;;26.38;44.01;100827.22;15379802;28;20087;-64
2021/06/28 21:59:20;;;;;;;1999.90;999.90;;;;;;;26.25;44.33;100824.16;15376551;29;20053;-62
2021/06/28 22:06:53;;;;;;;1999.90;999.90;;;;;;;26.13;44.67;100828.47;15379802;28;20642;-64
2021/06/28 22:14:26;;;;;;;;;;;;;;;26.09;46.52;100826.94;15380440;28;20102;-63
2021/06/28 22:21:58;;;;;;;1999.90;999.90;;;;;;;25.99;47.70;100842.22;15383442;28;19922;-62
2021/06/28 22:29:32;;;;;;;1999.90;999.90;;;;;;;25.85;48.08;100837.59;15378063;28;20057;-63
2021/06/28 22:37:05;;;;;;;1999.90;999.90;;;;;;;25.72;46.10;100823.09;15363148;29;20082;-60
2021/06/28 22:44:41;;;;;;;1999.90;999.90;;;;;;;25.62;46.27;100813.44;15379561;28;20122;-61
2021/06/28 22:52:14;;;;;;;1999.90;999.90;;;;;;;25.51;47.85;100817.72;15377398;29;20039;-61
2021/06/28 22:59:47;;;;;;;1999.90;999.90;;;;;;;25.39;48.23;100819.13;15376200;29;20135;-62
2021/06/28 23:07:19;;;;;;;1999.90;999.90;;;;;;;25.36;48.19;100822.03;15373604;28;20269;-62
2021/06/28 23:14:53;;;;;;;1999.90;999.90;;;;;;;25.33;49.17;100820.88;15372992;29;20058;-62
2021/06/28 23:22:25;;;;;;;1999.90;999.90;;;;;;;25.20;48.25;100822.69;15354795;29;20130;-61
2021/06/28 23:29:58;;;;;;;1999.90;999.90;;;;;;;25.12;48.22;100824.06;15373685;28;20054;-60
2021/06/28 23:37:30;;;;;;;1999.90;999.90;;;;;;;24.86;45.95;100809.28;15372619;28;20564;-61
2021/06/28 23:45:04;;;;;;;1999.90;999.90;;;;;;;24.96;46.27;100794.06;15376406;28;20061;-62
2021/06/28 23:52:37;;;;;;;1999.90;999.90;;;;;;;24.79;47.52;100782.88;15375093;29;20517;-61
